Terminal Aerodrome Forecast
Issued by NWS Sioux Falls, SD

Home | Current Version | Previous Version | Graphics & Text | Print | Product List | Glossary Off
Versions: 1 2 3 4 5 6 7 8 9 10 11 12 13 14 15 16 17 18 19 20 21

000
FTUS43 KFSD 011720
TAFSUX
TAF
KSUX 011720Z 0118/0218 01013KT P6SM VCSH OVC015
     FM011900 01013G19KT P6SM VCSH OVC025
     FM012100 01012KT P6SM OVC035
     FM020000 36007KT P6SM BKN040
     FM020400 33004KT P6SM SCT040
     FM021000 VRB03KT 5SM BR SCT040
     FM021500 32005KT P6SM SCT040=

USA.gov is the U.S. government's official web portal to all federal, state and local government web resources and services.